createdAt,value
2023-01-07T00:00:06.356Z,7.8
2023-01-07T00:01:06.125Z,7.8
2023-01-07T00:02:06.289Z,7.8
2023-01-07T00:03:06.128Z,7.8
2023-01-07T00:04:06.311Z,7.8
2023-01-07T00:05:05.815Z,7.8
2023-01-07T00:06:06.057Z,7.8
2023-01-07T00:07:06.493Z,7.8
2023-01-07T00:08:06.243Z,7.8
2023-01-07T00:09:04.817Z,7.8
2023-01-07T00:10:05.841Z,7.8
2023-01-07T00:11:06.411Z,7.7
2023-01-07T00:12:05.678Z,8
2023-01-07T00:13:06.140Z,8
2023-01-07T00:14:06.328Z,7.7
2023-01-07T00:15:06.726Z,7.7
2023-01-07T00:16:06.135Z,7.8
2023-01-07T00:17:06.027Z,7.7
2023-01-07T00:18:06.045Z,7.7
2023-01-07T00:19:06.543Z,7.7
2023-01-07T00:20:06.459Z,7.7
2023-01-07T00:21:05.904Z,7.7
2023-01-07T00:22:05.236Z,7.7
2023-01-07T00:23:04.972Z,7.7
2023-01-07T00:24:06.634Z,7.7
2023-01-07T00:25:06.212Z,7.7
2023-01-07T00:26:05.756Z,7.7
2023-01-07T00:27:05.954Z,7.7
2023-01-07T00:28:05.726Z,7.7
2023-01-07T00:29:06.509Z,7.8
2023-01-07T00:30:06.516Z,7.8
2023-01-07T00:31:05.893Z,7.7
2023-01-07T00:32:05.975Z,7.8
2023-01-07T00:33:05.738Z,7.7
2023-01-07T00:34:05.666Z,7.7
2023-01-07T00:35:05.844Z,7.7
2023-01-07T00:36:05.066Z,7.7
2023-01-07T00:37:05.931Z,7.7
2023-01-07T00:38:05.908Z,7.7
2023-01-07T00:39:05.377Z,7.7
2023-01-07T00:40:05.814Z,7.7
2023-01-07T00:41:06.246Z,7.7
2023-01-07T00:42:06.709Z,7.7
2023-01-07T00:43:06.267Z,7.7
2023-01-07T00:44:06.076Z,7.7
2023-01-07T00:45:04.875Z,7.7
2023-01-07T00:46:06.452Z,7.7
2023-01-07T00:47:06.233Z,7.7
2023-01-07T00:48:06.473Z,7.7
2023-01-07T00:49:04.906Z,7.8
2023-01-07T00:50:06.279Z,7.7
2023-01-07T00:51:06.645Z,7.7
2023-01-07T00:52:06.259Z,7.7
2023-01-07T00:53:06.622Z,7.7
2023-01-07T00:54:06.148Z,7.7
2023-01-07T00:55:06.254Z,7.6
2023-01-07T00:56:06.370Z,7.6
2023-01-07T00:57:05.823Z,7.6
2023-01-07T00:58:06.293Z,7.6
2023-01-07T00:59:06.213Z,8
2023-01-07T01:00:06.690Z,7.6
2023-01-07T01:01:05.551Z,8
2023-01-07T01:02:07.005Z,7.6
2023-01-07T01:03:05.784Z,7.6
2023-01-07T01:04:06.190Z,7.6
2023-01-07T01:05:05.810Z,7.6
2023-01-07T01:06:06.010Z,7.6
2023-01-07T01:07:06.618Z,7.6
2023-01-07T01:08:06.167Z,7.6
2023-01-07T01:09:06.556Z,7.6
2023-01-07T01:10:06.424Z,7.6
2023-01-07T01:11:05.784Z,7
2023-01-07T01:12:06.044Z,7
2023-01-07T01:13:06.506Z,7.6
2023-01-07T01:14:05.382Z,7.6
2023-01-07T01:15:06.613Z,7.6
2023-01-07T01:16:06.291Z,7
2023-01-07T01:17:05.937Z,7.6
2023-01-07T01:18:06.390Z,7.6
2023-01-07T01:19:05.806Z,7
2023-01-07T01:20:06.186Z,7
2023-01-07T01:21:05.756Z,7.6
2023-01-07T01:22:05.918Z,7.6
2023-01-07T01:23:06.015Z,7.6
2023-01-07T01:24:06.078Z,7.6
2023-01-07T01:25:06.359Z,7.6
2023-01-07T01:26:05.906Z,7
2023-01-07T01:27:05.040Z,7.6
2023-01-07T01:28:06.497Z,7.6
2023-01-07T01:29:06.127Z,7.6
2023-01-07T01:30:05.924Z,7.6
2023-01-07T01:31:06.399Z,7.6
2023-01-07T01:32:06.097Z,7
2023-01-07T01:33:06.381Z,7.6
2023-01-07T01:34:06.582Z,7.6
2023-01-07T01:35:05.935Z,7.6
2023-01-07T01:36:06.255Z,7.6
2023-01-07T01:37:06.567Z,7.6
2023-01-07T01:38:06.410Z,7.6
2023-01-07T01:39:06.077Z,7.6
2023-01-07T01:40:06.744Z,7.6
2023-01-07T01:41:06.702Z,7.6
2023-01-07T01:42:06.046Z,7.6
2023-01-07T01:43:06.140Z,7.6
2023-01-07T01:44:06.195Z,7.6
2023-01-07T01:45:05.759Z,7.6
2023-01-07T01:46:06.381Z,8
2023-01-07T01:47:06.730Z,7.6
2023-01-07T01:48:05.977Z,7.6
2023-01-07T01:49:05.918Z,7.6
2023-01-07T01:50:06.119Z,7.5
2023-01-07T01:51:06.641Z,7.6
2023-01-07T01:52:05.999Z,7.5
2023-01-07T01:53:06.230Z,7.5
2023-01-07T01:54:05.961Z,7.5
2023-01-07T01:55:06.076Z,7.5
2023-01-07T01:56:06.666Z,7.5
2023-01-07T01:57:06.021Z,7.5
2023-01-07T01:58:06.240Z,7
2023-01-07T01:59:06.244Z,7.5
2023-01-07T02:00:06.681Z,7.5
2023-01-07T02:01:06.655Z,7.5
2023-01-07T02:02:07.285Z,7.5
2023-01-07T02:03:06.080Z,7.5
2023-01-07T02:04:05.052Z,7.5
2023-01-07T02:05:06.293Z,7.5
2023-01-07T02:06:06.527Z,7.5
2023-01-07T02:07:05.878Z,7.5
2023-01-07T02:08:05.881Z,7.5
2023-01-07T02:09:05.821Z,7.5
2023-01-07T02:10:06.032Z,7
2023-01-07T02:11:06.149Z,7
2023-01-07T02:12:06.457Z,7.5
2023-01-07T02:13:06.407Z,7.5
2023-01-07T02:14:06.096Z,7.5
2023-01-07T02:15:06.035Z,7.4
2023-01-07T02:16:06.551Z,7
2023-01-07T02:17:06.148Z,7.4
2023-01-07T02:18:06.135Z,7.4
2023-01-07T02:19:06.455Z,7.4
2023-01-07T02:20:06.058Z,7.4
2023-01-07T02:21:05.879Z,7.4
2023-01-07T02:22:06.354Z,7.4
2023-01-07T02:23:05.599Z,7.4
2023-01-07T02:24:06.287Z,7.4
2023-01-07T02:25:05.944Z,7.4
2023-01-07T02:26:05.826Z,7.4
2023-01-07T02:27:05.735Z,7.4
2023-01-07T02:28:06.078Z,7.4
2023-01-07T02:29:06.549Z,7.4
2023-01-07T02:30:06.464Z,7.4
2023-01-07T02:31:06.506Z,7.4
2023-01-07T02:32:05.737Z,7.4
2023-01-07T02:33:05.862Z,7.4
2023-01-07T02:34:06.035Z,7.4
2023-01-07T02:35:05.901Z,7.4
2023-01-07T02:36:06.382Z,7.4
2023-01-07T02:37:05.960Z,7.4
2023-01-07T02:38:05.927Z,7.4
2023-01-07T02:39:05.693Z,7.4
2023-01-07T02:40:05.520Z,7.4
2023-01-07T02:41:06.412Z,7.4
2023-01-07T02:42:05.661Z,7.4
2023-01-07T02:43:05.953Z,7.4
2023-01-07T02:44:06.328Z,7.3
2023-01-07T02:45:06.702Z,7.3
2023-01-07T02:46:06.067Z,7.4
2023-01-07T02:47:05.897Z,7.4
2023-01-07T02:48:05.889Z,7.3
2023-01-07T02:49:06.599Z,7.3
2023-01-07T02:50:05.975Z,7.3
2023-01-07T02:51:06.597Z,7.3
2023-01-07T02:52:05.937Z,7.3
2023-01-07T02:53:06.220Z,7.3
2023-01-07T02:54:06.696Z,7.3
2023-01-07T02:55:06.069Z,7.3
2023-01-07T02:56:06.259Z,7.3
2023-01-07T02:57:06.220Z,7
2023-01-07T02:58:06.023Z,7
2023-01-07T02:59:06.305Z,7.3
2023-01-07T03:00:06.686Z,7.3
2023-01-07T03:01:06.687Z,7.3
2023-01-07T03:02:06.160Z,7.2
2023-01-07T03:03:06.383Z,7.2
2023-01-07T03:04:06.399Z,7.2
2023-01-07T03:05:06.407Z,7.2
2023-01-07T03:06:05.839Z,7.2
2023-01-07T03:07:04.711Z,7.2
2023-01-07T03:08:05.769Z,7.2
2023-01-07T03:09:06.117Z,7
2023-01-07T03:10:05.441Z,7
2023-01-07T03:11:05.895Z,7.2
2023-01-07T03:12:06.028Z,7.2
2023-01-07T03:13:06.527Z,7.2
2023-01-07T03:14:06.585Z,7.2
2023-01-07T03:15:05.815Z,7.2
2023-01-07T03:16:06.646Z,7.2
2023-01-07T03:17:05.901Z,7.2
2023-01-07T03:18:05.877Z,7.2
2023-01-07T03:19:06.278Z,7.2
2023-01-07T03:20:05.723Z,7.2
2023-01-07T03:21:05.836Z,7.2
2023-01-07T03:22:05.977Z,7.2
2023-01-07T03:23:05.921Z,7.2
2023-01-07T03:24:05.868Z,7.2
2023-01-07T03:25:06.144Z,7.2
2023-01-07T03:26:06.353Z,7.2
2023-01-07T03:27:06.404Z,7.2
2023-01-07T03:28:06.601Z,7.2
2023-01-07T03:29:05.998Z,7.2
2023-01-07T03:30:06.516Z,7.2
2023-01-07T03:31:06.599Z,7.2
2023-01-07T03:32:06.080Z,7.2
2023-01-07T03:33:06.209Z,7.2
2023-01-07T03:34:06.346Z,7.2
2023-01-07T03:35:05.612Z,7.2
2023-01-07T03:36:06.403Z,7.2
2023-01-07T03:37:05.723Z,7.2
2023-01-07T03:38:05.692Z,7.2
2023-01-07T03:39:05.875Z,7
2023-01-07T03:40:06.405Z,7
2023-01-07T03:41:06.588Z,7.2
2023-01-07T03:42:05.928Z,7.2
2023-01-07T03:43:06.233Z,7.2
2023-01-07T03:44:06.188Z,7
2023-01-07T03:45:06.304Z,7.2
2023-01-07T03:46:06.757Z,7.2
2023-01-07T03:47:05.507Z,7.2
2023-01-07T03:48:06.001Z,7.2
2023-01-07T03:49:06.094Z,7.2
2023-01-07T03:50:05.701Z,7.2
2023-01-07T03:51:06.107Z,7
2023-01-07T03:52:06.283Z,7.2
2023-01-07T03:53:06.395Z,7.2
2023-01-07T03:54:05.976Z,7.2
2023-01-07T03:55:06.263Z,7.2
2023-01-07T03:56:06.765Z,7.2
2023-01-07T03:57:05.841Z,7.2
2023-01-07T03:58:05.819Z,7.2
2023-01-07T03:59:06.118Z,7.2
2023-01-07T04:00:05.831Z,7.2
2023-01-07T04:01:06.316Z,7.1
2023-01-07T04:02:07.004Z,7.1
2023-01-07T04:03:06.187Z,7.1
2023-01-07T04:04:07.904Z,7.1
2023-01-07T04:05:06.714Z,7.1
2023-01-07T04:06:05.824Z,7.1
2023-01-07T04:07:05.955Z,7.1
2023-01-07T04:08:06.179Z,7.1
2023-01-07T04:09:06.447Z,7.1
2023-01-07T04:10:06.152Z,7.1
2023-01-07T04:11:05.734Z,7.1
2023-01-07T04:12:04.969Z,7.1
2023-01-07T04:13:05.907Z,7.1
2023-01-07T04:14:06.164Z,7.1
2023-01-07T04:15:06.478Z,7.1
2023-01-07T04:16:05.789Z,7.1
2023-01-07T04:17:06.101Z,7.1
2023-01-07T04:18:06.139Z,7.1
2023-01-07T04:19:05.262Z,7.1
2023-01-07T04:20:06.410Z,7.1
2023-01-07T04:21:06.079Z,7.1
2023-01-07T04:22:05.719Z,7.1
2023-01-07T04:23:06.239Z,7.1
2023-01-07T04:24:06.568Z,7.1
2023-01-07T04:25:06.259Z,7.1
2023-01-07T04:26:06.336Z,7.1
2023-01-07T04:27:06.387Z,7.1
2023-01-07T04:28:05.936Z,7.1
2023-01-07T04:29:05.752Z,7.1
2023-01-07T04:30:05.847Z,7.1
2023-01-07T04:31:06.188Z,7.1
2023-01-07T04:32:06.528Z,7.1
2023-01-07T04:33:06.586Z,7.1
2023-01-07T04:34:05.938Z,7.1
2023-01-07T04:35:05.932Z,7
2023-01-07T04:36:06.055Z,7.1
2023-01-07T04:37:06.485Z,7
2023-01-07T04:38:06.394Z,7
2023-01-07T04:39:05.672Z,7
2023-01-07T04:40:06.013Z,7
2023-01-07T04:41:06.477Z,7
2023-01-07T04:42:05.699Z,7
2023-01-07T04:43:05.796Z,7
2023-01-07T04:44:05.720Z,7
2023-01-07T04:45:05.932Z,7
2023-01-07T04:46:06.167Z,7
2023-01-07T04:47:06.264Z,7
2023-01-07T04:48:05.647Z,7
2023-01-07T04:49:06.075Z,7
2023-01-07T04:50:06.161Z,7
2023-01-07T04:51:06.060Z,7
2023-01-07T04:52:06.313Z,7
2023-01-07T04:53:06.319Z,7
2023-01-07T04:54:05.995Z,7
2023-01-07T04:55:06.091Z,7
2023-01-07T04:56:06.533Z,7
2023-01-07T04:57:06.092Z,7
2023-01-07T04:58:05.769Z,7
2023-01-07T04:59:05.842Z,7
2023-01-07T05:00:06.329Z,7
2023-01-07T05:01:06.182Z,7
2023-01-07T05:02:06.451Z,7
2023-01-07T05:03:06.074Z,7
2023-01-07T05:04:06.285Z,7
2023-01-07T05:05:05.425Z,7
2023-01-07T05:06:06.002Z,7
2023-01-07T05:07:06.439Z,7
2023-01-07T05:08:05.839Z,7
2023-01-07T05:09:06.232Z,7
2023-01-07T05:10:06.610Z,7
2023-01-07T05:11:05.770Z,7
2023-01-07T05:12:06.352Z,7
2023-01-07T05:13:07.541Z,7
2023-01-07T05:14:06.167Z,7
2023-01-07T05:15:06.413Z,7
2023-01-07T05:16:06.158Z,7
2023-01-07T05:17:06.180Z,7
2023-01-07T05:18:06.590Z,7
2023-01-07T05:19:05.929Z,7
2023-01-07T05:20:06.221Z,7
2023-01-07T05:21:05.667Z,7
2023-01-07T05:22:06.044Z,7
2023-01-07T05:23:05.603Z,7
2023-01-07T05:24:06.364Z,7
2023-01-07T05:25:06.751Z,7
2023-01-07T05:26:05.914Z,7
2023-01-07T05:27:06.313Z,7
2023-01-07T05:28:05.420Z,7
2023-01-07T05:29:06.162Z,6.9
2023-01-07T05:30:06.077Z,6.9
2023-01-07T05:31:06.304Z,7
2023-01-07T05:32:06.573Z,7
2023-01-07T05:33:06.694Z,7
2023-01-07T05:34:05.911Z,7
2023-01-07T05:35:06.277Z,7
2023-01-07T05:36:06.582Z,7
2023-01-07T05:37:06.408Z,7
2023-01-07T05:38:05.799Z,7
2023-01-07T05:39:06.492Z,7
2023-01-07T05:40:06.693Z,7
2023-01-07T05:41:05.927Z,6.9
2023-01-07T05:42:06.340Z,6.9
2023-01-07T05:43:06.337Z,6.9
2023-01-07T05:44:05.792Z,6.9
2023-01-07T05:45:06.145Z,6.9
2023-01-07T05:46:06.599Z,6.9
2023-01-07T05:47:05.091Z,6.9
2023-01-07T05:48:06.507Z,6.9
2023-01-07T05:49:05.775Z,7
2023-01-07T05:50:05.906Z,7
2023-01-07T05:51:06.115Z,7
2023-01-07T05:52:05.787Z,6.9
2023-01-07T05:53:06.102Z,6.9
2023-01-07T05:54:06.091Z,6.9
2023-01-07T05:55:06.654Z,6.9
2023-01-07T05:56:05.808Z,6.9
2023-01-07T05:57:06.167Z,6.9
2023-01-07T05:58:05.665Z,6.9
2023-01-07T05:59:06.556Z,6.9
2023-01-07T06:00:05.881Z,6.9
2023-01-07T06:01:05.865Z,6.9
2023-01-07T06:02:05.990Z,7
2023-01-07T06:03:05.990Z,6.9
2023-01-07T06:04:06.331Z,6.9
2023-01-07T06:05:06.623Z,7
2023-01-07T06:06:05.414Z,7
2023-01-07T06:07:05.582Z,6.9
2023-01-07T06:08:05.261Z,6.9
2023-01-07T06:09:06.312Z,6.9
2023-01-07T06:10:07.454Z,6.9
2023-01-07T06:11:06.231Z,6.9
2023-01-07T06:12:05.957Z,6.9
2023-01-07T06:13:06.154Z,6.9
2023-01-07T06:14:06.673Z,6.9
2023-01-07T06:15:06.336Z,6.9
2023-01-07T06:16:06.281Z,6.9
2023-01-07T06:17:06.538Z,6.9
2023-01-07T06:18:05.608Z,6.9
2023-01-07T06:19:06.561Z,6.9
2023-01-07T06:20:05.457Z,6.9
2023-01-07T06:21:06.428Z,6.9
2023-01-07T06:22:04.804Z,6.9
2023-01-07T06:23:06.230Z,7
2023-01-07T06:24:05.786Z,6.9
2023-01-07T06:25:06.440Z,6.9
2023-01-07T06:26:06.187Z,6.8
2023-01-07T06:27:06.258Z,6.8
2023-01-07T06:28:06.032Z,6.9
2023-01-07T06:29:05.723Z,6.9
2023-01-07T06:30:06.165Z,7
2023-01-07T06:31:06.868Z,7
2023-01-07T06:32:05.672Z,6.9
2023-01-07T06:33:06.048Z,6.9
2023-01-07T06:34:06.436Z,6.9
2023-01-07T06:35:06.450Z,6.9
2023-01-07T06:36:06.503Z,6.9
2023-01-07T06:37:06.337Z,6.8
2023-01-07T06:38:05.881Z,6.8
2023-01-07T06:39:06.401Z,6.9
2023-01-07T06:40:05.676Z,6.8
2023-01-07T06:41:06.364Z,6.8
2023-01-07T06:42:06.571Z,6.8
2023-01-07T06:43:06.036Z,7
2023-01-07T06:44:06.550Z,7
2023-01-07T06:45:06.505Z,6.8
2023-01-07T06:46:06.377Z,6.8
2023-01-07T06:47:05.185Z,6.8
2023-01-07T06:48:06.502Z,6.8
2023-01-07T06:49:06.518Z,6.8
2023-01-07T06:50:05.932Z,6.8
2023-01-07T06:51:05.488Z,6.8
2023-01-07T06:52:05.941Z,6.8
2023-01-07T06:53:06.038Z,6.8
2023-01-07T06:54:06.140Z,6
2023-01-07T06:55:06.612Z,6.8
2023-01-07T06:56:05.657Z,6.8
2023-01-07T06:57:06.289Z,6.7
2023-01-07T06:58:05.730Z,6.7
2023-01-07T06:59:06.323Z,6.7
2023-01-07T07:00:05.657Z,6.7
2023-01-07T07:01:06.302Z,6.7
2023-01-07T07:02:06.504Z,6.7
2023-01-07T07:03:05.887Z,6.7
2023-01-07T07:04:05.879Z,6.7
2023-01-07T07:05:06.496Z,6.7
2023-01-07T07:06:06.754Z,6.7
2023-01-07T07:07:06.087Z,6.7
2023-01-07T07:08:06.657Z,6
2023-01-07T07:09:05.779Z,6.7
2023-01-07T07:10:06.206Z,6.7
2023-01-07T07:11:05.650Z,6.7
2023-01-07T07:12:05.939Z,6.7
2023-01-07T07:13:05.784Z,6.7
2023-01-07T07:14:05.906Z,6.6
2023-01-07T07:15:06.321Z,6.6
2023-01-07T07:16:06.313Z,6.6
2023-01-07T07:17:05.700Z,6.6
2023-01-07T07:18:06.011Z,6.6
2023-01-07T07:19:05.819Z,6.6
2023-01-07T07:20:06.088Z,6
2023-01-07T07:21:06.648Z,6
2023-01-07T07:22:08.770Z,6.6
2023-01-07T07:23:05.688Z,6.6
2023-01-07T07:24:06.105Z,6.6
2023-01-07T07:25:05.908Z,6.6
2023-01-07T07:26:06.567Z,6.6
2023-01-07T07:27:05.830Z,6.6
2023-01-07T07:28:05.928Z,6
2023-01-07T07:29:06.293Z,6
2023-01-07T07:30:05.476Z,6.6
2023-01-07T07:31:06.559Z,6.5
2023-01-07T07:32:05.824Z,6.5
2023-01-07T07:33:06.216Z,6.5
2023-01-07T07:34:06.325Z,6.5
2023-01-07T07:35:05.687Z,6.6
2023-01-07T07:36:06.188Z,6.5
2023-01-07T07:37:04.912Z,6.5
2023-01-07T07:38:06.290Z,6.5
2023-01-07T07:39:05.739Z,6.5
2023-01-07T07:40:06.035Z,6.5
2023-01-07T07:41:05.790Z,6.5
2023-01-07T07:42:06.159Z,6.6
2023-01-07T07:43:16.381Z,6
2023-01-07T07:44:05.821Z,6.6
2023-01-07T07:45:06.014Z,6.6
2023-01-07T07:46:06.112Z,6.6
2023-01-07T07:47:06.380Z,6.6
2023-01-07T07:48:06.380Z,6.6
2023-01-07T07:49:06.028Z,6.6
2023-01-07T07:50:05.916Z,6.6
2023-01-07T07:51:06.150Z,6
2023-01-07T07:52:06.522Z,6.6
2023-01-07T07:53:05.787Z,6.6
2023-01-07T07:54:06.050Z,6.6
2023-01-07T07:55:28.563Z,6.6
2023-01-07T07:56:06.667Z,6.6
2023-01-07T07:57:05.996Z,6.6
2023-01-07T07:58:06.399Z,6.7
2023-01-07T07:59:06.616Z,6.6
2023-01-07T08:00:06.248Z,6.6
2023-01-07T08:01:05.700Z,6.6
2023-01-07T08:02:06.117Z,6.6
2023-01-07T08:03:06.701Z,6.6
2023-01-07T08:04:06.181Z,8
2023-01-07T08:05:06.754Z,6.6
2023-01-07T08:06:06.023Z,6.6
2023-01-07T08:07:06.297Z,8
2023-01-07T08:08:06.431Z,8
2023-01-07T08:09:05.955Z,6.6
2023-01-07T08:10:05.749Z,6.5
2023-01-07T08:11:06.060Z,6.6
2023-01-07T08:12:06.533Z,6.6
2023-01-07T08:13:06.162Z,6.6
2023-01-07T08:14:06.387Z,6.6
2023-01-07T08:15:05.806Z,8
2023-01-07T08:16:06.368Z,8
2023-01-07T08:17:06.556Z,6.6
2023-01-07T08:18:06.585Z,6.6
2023-01-07T08:19:06.520Z,6.6
2023-01-07T08:20:06.304Z,6.6
2023-01-07T08:21:06.724Z,6.7
2023-01-07T08:22:05.845Z,6.7
2023-01-07T08:23:05.663Z,6.7
2023-01-07T08:24:06.122Z,6.7
2023-01-07T08:25:06.352Z,6.7
2023-01-07T08:26:05.621Z,9
2023-01-07T08:27:05.398Z,9
2023-01-07T08:28:06.066Z,6.8
2023-01-07T08:29:06.549Z,6.8
2023-01-07T08:30:05.686Z,6.9
2023-01-07T08:31:06.835Z,6.9
2023-01-07T08:32:05.960Z,6.9
2023-01-07T08:33:06.557Z,7
2023-01-07T08:34:05.895Z,7.1
2023-01-07T08:35:06.282Z,7.1
2023-01-07T08:36:22.808Z,7.1
2023-01-07T08:37:06.328Z,7.2
2023-01-07T08:38:05.727Z,7.2
2023-01-07T08:39:06.438Z,7.2
2023-01-07T08:40:09.658Z,7.2
2023-01-07T08:41:06.465Z,7.3
2023-01-07T08:42:06.142Z,7.3
2023-01-07T08:43:06.314Z,7.4
2023-01-07T08:44:06.193Z,7.4
2023-01-07T08:45:06.351Z,7.5
2023-01-07T08:46:06.577Z,7.5
2023-01-07T08:47:06.813Z,7.6
2023-01-07T08:48:05.982Z,7.6
2023-01-07T08:49:06.550Z,7.7
2023-01-07T08:50:05.931Z,7.7
2023-01-07T08:51:06.074Z,7.7
2023-01-07T08:52:06.727Z,7.9
2023-01-07T08:53:05.988Z,7.9
2023-01-07T08:54:06.039Z,7.9
2023-01-07T08:55:06.436Z,7.9
2023-01-07T08:56:05.934Z,8
2023-01-07T08:57:06.128Z,8
2023-01-07T08:58:06.332Z,8.1
2023-01-07T08:59:05.774Z,8.3
2023-01-07T09:00:06.056Z,8.3
2023-01-07T09:01:06.919Z,8.3
2023-01-07T09:02:06.179Z,8.4
2023-01-07T09:03:05.928Z,8.4
2023-01-07T09:04:05.708Z,8.4
2023-01-07T09:05:05.920Z,8.5
2023-01-07T09:06:05.995Z,8.6
2023-01-07T09:07:05.801Z,8.7
2023-01-07T09:08:06.527Z,8.8
2023-01-07T09:09:05.683Z,8.8
2023-01-07T09:10:05.862Z,8.8
2023-01-07T09:11:06.028Z,8.9
2023-01-07T09:12:05.888Z,8.9
2023-01-07T09:13:06.069Z,9.1
2023-01-07T09:14:06.080Z,9.2
2023-01-07T09:15:06.289Z,9.2
2023-01-07T09:16:06.489Z,9.2
2023-01-07T09:17:06.569Z,9.2
2023-01-07T09:18:06.618Z,11
2023-01-07T09:19:05.903Z,9.4
2023-01-07T09:20:06.397Z,9.4
2023-01-07T09:21:06.498Z,9.3
2023-01-07T09:22:05.927Z,9.4
2023-01-07T09:23:05.717Z,9.4
2023-01-07T09:24:06.123Z,9.4
2023-01-07T09:25:06.496Z,11
2023-01-07T09:26:05.879Z,11
2023-01-07T09:27:06.111Z,11
2023-01-07T09:28:06.393Z,9.6
2023-01-07T09:29:06.209Z,9.6
2023-01-07T09:30:06.488Z,9.6
2023-01-07T09:31:06.441Z,9.6
2023-01-07T09:32:05.850Z,9.7
2023-01-07T09:33:06.378Z,9.7
2023-01-07T09:34:06.601Z,9.8
2023-01-07T09:35:05.884Z,9.8
2023-01-07T09:36:06.781Z,9.8
2023-01-07T09:37:05.919Z,11
2023-01-07T09:38:06.432Z,11
2023-01-07T09:39:05.891Z,9.9
2023-01-07T09:40:06.231Z,9.9
2023-01-07T09:41:06.502Z,10.1
2023-01-07T09:42:05.934Z,10.1
2023-01-07T09:43:06.213Z,10.2
2023-01-07T09:44:08.919Z,10.2
2023-01-07T09:45:04.759Z,10.2
2023-01-07T09:46:06.063Z,10.3
2023-01-07T09:47:06.139Z,10.3
2023-01-07T09:48:06.551Z,10.3
2023-01-07T09:49:06.507Z,10.4
2023-01-07T09:50:05.821Z,10.4
2023-01-07T09:51:06.068Z,10.4
2023-01-07T09:52:06.470Z,10.6
2023-01-07T09:53:06.116Z,10.6
2023-01-07T09:54:06.041Z,10.6
2023-01-07T09:55:06.220Z,10.6
2023-01-07T09:56:16.698Z,10.8
2023-01-07T09:57:06.550Z,10.8
2023-01-07T09:58:05.936Z,10.8
2023-01-07T09:59:06.629Z,10.9
2023-01-07T10:00:05.949Z,10.9
2023-01-07T10:01:05.891Z,10.9
2023-01-07T10:02:06.373Z,11.1
2023-01-07T10:03:05.993Z,11.2
2023-01-07T10:04:07.033Z,11.2
2023-01-07T10:05:06.569Z,11.3
2023-01-07T10:06:06.434Z,11.3
2023-01-07T10:07:05.612Z,11.4
2023-01-07T10:08:34.617Z,11.4
2023-01-07T10:09:06.258Z,11.4
2023-01-07T10:10:06.584Z,11.6
2023-01-07T10:11:05.618Z,11.6
2023-01-07T10:12:06.503Z,12
2023-01-07T10:13:06.061Z,11.8
2023-01-07T10:14:06.077Z,11.8
2023-01-07T10:15:06.444Z,11.9
2023-01-07T10:16:06.233Z,12
2023-01-07T10:17:06.335Z,12
2023-01-07T10:18:05.680Z,12
2023-01-07T10:19:06.114Z,12.1
2023-01-07T10:20:06.053Z,11
2023-01-07T10:21:06.106Z,12.2
2023-01-07T10:22:06.532Z,12.2
2023-01-07T10:23:06.527Z,12.3
2023-01-07T10:24:05.835Z,12.3
2023-01-07T10:25:06.064Z,12.3
2023-01-07T10:26:06.507Z,12.4
2023-01-07T10:27:05.906Z,12.4
2023-01-07T10:28:06.034Z,12.4
2023-01-07T10:29:04.955Z,12.5
2023-01-07T10:30:06.317Z,12.4
2023-01-07T10:31:06.233Z,12.4
2023-01-07T10:32:06.116Z,12.5
2023-01-07T10:33:06.189Z,12.5
2023-01-07T10:34:06.172Z,12.6
2023-01-07T10:35:06.457Z,12.6
2023-01-07T10:36:06.169Z,12.6
2023-01-07T10:37:06.016Z,12.6
2023-01-07T10:38:06.288Z,12.6
2023-01-07T10:39:05.648Z,12.6
2023-01-07T10:40:06.012Z,12.6
2023-01-07T10:41:06.065Z,12.7
2023-01-07T10:42:06.366Z,12.6
2023-01-07T10:43:06.143Z,12.6
2023-01-07T10:44:06.397Z,12.6
2023-01-07T10:45:06.096Z,12.6
2023-01-07T10:46:06.580Z,12.6
2023-01-07T10:47:06.491Z,12.6
2023-01-07T10:48:05.995Z,12
2023-01-07T10:49:06.387Z,12.6
2023-01-07T10:50:06.631Z,12.6
2023-01-07T10:51:05.931Z,12.6
2023-01-07T10:52:06.415Z,12.6
2023-01-07T10:53:06.511Z,12.6
2023-01-07T10:54:04.875Z,12.6
2023-01-07T10:55:06.078Z,12.7
2023-01-07T10:56:05.809Z,12.7
2023-01-07T10:57:04.867Z,12.7
2023-01-07T10:58:06.134Z,12
2023-01-07T10:59:06.236Z,12.7
2023-01-07T11:00:06.969Z,12.7
2023-01-07T11:01:07.175Z,12.8
2023-01-07T11:02:07.397Z,12.8
2023-01-07T11:03:06.652Z,12.8
2023-01-07T11:04:05.720Z,12.8
2023-01-07T11:05:04.950Z,12.8
2023-01-07T11:06:06.857Z,12.9
2023-01-07T11:07:06.497Z,12.9
2023-01-07T11:08:05.888Z,12.9
2023-01-07T11:09:05.609Z,12.9
2023-01-07T11:10:05.979Z,12.9
2023-01-07T11:11:05.783Z,12.9
2023-01-07T11:12:06.032Z,13
2023-01-07T11:13:06.522Z,13
2023-01-07T11:14:05.937Z,11
2023-01-07T11:15:06.450Z,13
2023-01-07T11:16:06.679Z,13
2023-01-07T11:17:05.567Z,13
2023-01-07T11:18:06.432Z,13
2023-01-07T11:19:05.585Z,13
2023-01-07T11:20:04.864Z,12.8
2023-01-07T11:21:06.488Z,12.8
2023-01-07T11:22:06.391Z,12.9
2023-01-07T11:23:05.750Z,12.9
2023-01-07T11:24:06.182Z,11
2023-01-07T11:25:05.588Z,13
2023-01-07T11:26:06.405Z,13.1
2023-01-07T11:27:06.323Z,13.1
2023-01-07T11:28:05.732Z,13.1
2023-01-07T11:29:06.353Z,13.1
2023-01-07T11:30:06.042Z,13.1
2023-01-07T11:31:06.337Z,13.1
2023-01-07T11:32:06.606Z,13
2023-01-07T11:33:06.053Z,13
2023-01-07T11:34:08.771Z,13
2023-01-07T11:35:05.760Z,13
2023-01-07T11:36:05.871Z,12.9
2023-01-07T11:37:06.217Z,12.8
2023-01-07T11:38:06.372Z,12.8
2023-01-07T11:39:05.807Z,12.8
2023-01-07T11:40:06.265Z,12.8
2023-01-07T11:41:06.262Z,12.8
2023-01-07T11:42:06.460Z,12.8
2023-01-07T11:43:05.893Z,12.8
2023-01-07T11:44:05.770Z,12.8
2023-01-07T11:45:06.026Z,12.8
2023-01-07T11:46:28.303Z,12.8
2023-01-07T11:47:06.084Z,11
2023-01-07T11:48:06.250Z,11
2023-01-07T11:49:06.038Z,12.8
2023-01-07T11:50:06.016Z,12.8
2023-01-07T11:51:05.713Z,12.7
2023-01-07T11:52:06.188Z,12.6
2023-01-07T11:53:05.455Z,12.6
2023-01-07T11:54:05.951Z,12.6
2023-01-07T11:55:04.957Z,12.6
2023-01-07T11:56:06.061Z,12.5
2023-01-07T11:57:06.084Z,12.5
2023-01-07T11:58:33.556Z,12.5
2023-01-07T11:59:05.867Z,12.6
2023-01-07T12:00:05.759Z,12.5
2023-01-07T12:01:06.026Z,12.5
2023-01-07T12:02:06.350Z,12.4
2023-01-07T12:03:06.607Z,12.5
2023-01-07T12:04:05.888Z,12.5
2023-01-07T12:05:06.043Z,12.5
2023-01-07T12:06:06.445Z,12.6
2023-01-07T12:07:05.275Z,12.6
2023-01-07T12:08:05.776Z,12.6
2023-01-07T12:09:06.197Z,12.6
2023-01-07T12:10:06.055Z,12.6
2023-01-07T12:11:06.424Z,12.6
2023-01-07T12:12:05.636Z,12.6
2023-01-07T12:13:05.635Z,12.6
2023-01-07T12:14:05.811Z,12.6
2023-01-07T12:15:06.253Z,12.6
2023-01-07T12:16:06.415Z,12.7
2023-01-07T12:17:05.913Z,12.7
2023-01-07T12:18:06.532Z,12.7
2023-01-07T12:19:05.696Z,11
2023-01-07T12:20:06.250Z,12.7
2023-01-07T12:21:05.698Z,12.7
2023-01-07T12:22:06.275Z,11
2023-01-07T12:23:05.975Z,12.6
2023-01-07T12:24:05.669Z,12.4
2023-01-07T12:25:06.458Z,12.4
2023-01-07T12:26:06.457Z,12.4
2023-01-07T12:27:06.556Z,12.3
2023-01-07T12:28:05.987Z,12.3
2023-01-07T12:29:06.268Z,12.3
2023-01-07T12:30:06.280Z,12.3
2023-01-07T12:31:06.281Z,12.2
2023-01-07T12:32:05.768Z,12.2
2023-01-07T12:33:06.107Z,12
2023-01-07T12:34:06.242Z,12
2023-01-07T12:35:20.017Z,12.2
2023-01-07T12:36:06.447Z,12.1
2023-01-07T12:37:05.902Z,12.2
2023-01-07T12:38:06.629Z,12.2
2023-01-07T12:39:05.954Z,12.2
2023-01-07T12:40:05.889Z,12.2
2023-01-07T12:41:06.193Z,12.2
2023-01-07T12:42:06.546Z,12.2
2023-01-07T12:43:05.512Z,12.2
2023-01-07T12:44:06.232Z,12.1
2023-01-07T12:45:06.546Z,12.2
2023-01-07T12:46:06.467Z,12
2023-01-07T12:47:37.453Z,12.1
2023-01-07T12:48:06.522Z,12.1
2023-01-07T12:49:06.434Z,12
2023-01-07T12:50:05.762Z,12
2023-01-07T12:51:05.870Z,12
2023-01-07T12:52:05.944Z,12
2023-01-07T12:53:06.420Z,11.9
2023-01-07T12:54:05.874Z,11.9
2023-01-07T12:55:05.811Z,11.9
2023-01-07T12:56:06.170Z,11.9
2023-01-07T12:57:05.794Z,11.9
2023-01-07T12:58:06.108Z,11.9
2023-01-07T12:59:05.842Z,11.8
2023-01-07T13:00:06.347Z,11.8
2023-01-07T13:01:06.778Z,11.8
2023-01-07T13:02:07.010Z,11.8
2023-01-07T13:03:06.220Z,11.8
2023-01-07T13:04:05.708Z,11.8
2023-01-07T13:05:06.708Z,11.8
2023-01-07T13:06:05.615Z,11.8
2023-01-07T13:07:06.108Z,11.7
2023-01-07T13:08:08.479Z,11.7
2023-01-07T13:09:06.481Z,11.6
2023-01-07T13:10:05.851Z,11.7
2023-01-07T13:11:06.090Z,11.6
2023-01-07T13:12:08.475Z,11.6
2023-01-07T13:13:06.462Z,13
2023-01-07T13:14:05.824Z,11.6
2023-01-07T13:15:05.413Z,11.6
2023-01-07T13:16:06.607Z,13
2023-01-07T13:17:05.660Z,11.6
2023-01-07T13:18:06.322Z,11.5
2023-01-07T13:19:05.672Z,11.5
2023-01-07T13:20:08.842Z,11.4
2023-01-07T13:21:06.077Z,11.4
2023-01-07T13:22:06.382Z,11.4
2023-01-07T13:23:06.331Z,11.4
2023-01-07T13:24:06.464Z,11.4
2023-01-07T13:25:06.435Z,11.4
2023-01-07T13:26:05.054Z,11.3
2023-01-07T13:27:05.345Z,11.3
2023-01-07T13:28:05.956Z,11.3
2023-01-07T13:29:05.093Z,11.2
2023-01-07T13:30:05.617Z,11.2
2023-01-07T13:31:06.791Z,12
2023-01-07T13:32:06.788Z,12
2023-01-07T13:33:05.885Z,11.2
2023-01-07T13:34:06.249Z,11.2
2023-01-07T13:35:06.591Z,11.2
2023-01-07T13:36:06.466Z,11.2
2023-01-07T13:37:07.886Z,11.2
2023-01-07T13:38:05.791Z,11.2
2023-01-07T13:39:06.322Z,11.1
2023-01-07T13:40:05.867Z,11.1
2023-01-07T13:41:06.356Z,11.1
2023-01-07T13:42:06.153Z,11.1
2023-01-07T13:43:06.357Z,11.1
2023-01-07T13:44:06.620Z,11.1
2023-01-07T13:45:05.951Z,11
2023-01-07T13:46:06.288Z,11
2023-01-07T13:47:05.929Z,11
2023-01-07T13:48:07.438Z,11